sensor_id;sensor_type;location;lat;lon;timestamp;P1;durP1;ratioP1;P2;durP2;ratioP2
14381;SDS011;7275;50.328;8.720;2022-09-09T00:00:58;1.10;;;1.00;;
14381;SDS011;7275;50.328;8.720;2022-09-09T00:03:33;2.07;;;1.03;;
14381;SDS011;7275;50.328;8.720;2022-09-09T00:06:06;1.70;;;1.20;;
14381;SDS011;7275;50.328;8.720;2022-09-09T00:08:45;2.43;;;1.20;;
14381;SDS011;7275;50.328;8.720;2022-09-09T00:11:21;2.47;;;1.03;;
14381;SDS011;7275;50.328;8.720;2022-09-09T00:13:57;2.30;;;1.20;;
14381;SDS011;7275;50.328;8.720;2022-09-09T00:16:30;1.87;;;1.20;;
14381;SDS011;7275;50.328;8.720;2022-09-09T00:19:05;4.17;;;1.17;;
14381;SDS011;7275;50.328;8.720;2022-09-09T00:21:35;3.37;;;1.20;;
14381;SDS011;7275;50.328;8.720;2022-09-09T00:24:09;3.10;;;1.43;;
14381;SDS011;7275;50.328;8.720;2022-09-09T00:26:40;2.00;;;1.10;;
14381;SDS011;7275;50.328;8.720;2022-09-09T00:29:14;1.77;;;1.20;;
14381;SDS011;7275;50.328;8.720;2022-09-09T00:31:50;2.07;;;0.90;;
14381;SDS011;7275;50.328;8.720;2022-09-09T00:34:25;2.23;;;1.30;;
14381;SDS011;7275;50.328;8.720;2022-09-09T00:36:53;2.50;;;1.00;;
14381;SDS011;7275;50.328;8.720;2022-09-09T00:39:25;1.33;;;0.80;;
14381;SDS011;7275;50.328;8.720;2022-09-09T00:42:02;1.33;;;1.00;;
14381;SDS011;7275;50.328;8.720;2022-09-09T00:44:44;1.77;;;0.90;;
14381;SDS011;7275;50.328;8.720;2022-09-09T00:50:14;1.80;;;1.00;;
14381;SDS011;7275;50.328;8.720;2022-09-09T00:52:52;1.30;;;1.00;;
14381;SDS011;7275;50.328;8.720;2022-09-09T00:55:33;1.93;;;1.03;;
14381;SDS011;7275;50.328;8.720;2022-09-09T00:58:07;2.20;;;1.07;;
14381;SDS011;7275;50.328;8.720;2022-09-09T01:00:38;1.90;;;1.07;;
14381;SDS011;7275;50.328;8.720;2022-09-09T01:03:13;1.73;;;1.13;;
14381;SDS011;7275;50.328;8.720;2022-09-09T01:05:50;1.47;;;1.00;;
14381;SDS011;7275;50.328;8.720;2022-09-09T01:11:32;1.43;;;0.90;;
14381;SDS011;7275;50.328;8.720;2022-09-09T01:14:10;1.40;;;1.10;;
14381;SDS011;7275;50.328;8.720;2022-09-09T01:16:44;2.47;;;1.20;;
14381;SDS011;7275;50.328;8.720;2022-09-09T01:19:15;2.07;;;1.10;;
14381;SDS011;7275;50.328;8.720;2022-09-09T01:21:50;2.30;;;1.10;;
14381;SDS011;7275;50.328;8.720;2022-09-09T01:24:30;1.77;;;1.20;;
14381;SDS011;7275;50.328;8.720;2022-09-09T01:27:07;3.20;;;1.13;;
14381;SDS011;7275;50.328;8.720;2022-09-09T01:29:37;4.40;;;1.13;;
14381;SDS011;7275;50.328;8.720;2022-09-09T01:35:05;2.13;;;1.20;;
14381;SDS011;7275;50.328;8.720;2022-09-09T01:37:37;3.50;;;1.20;;
14381;SDS011;7275;50.328;8.720;2022-09-09T01:40:05;2.17;;;1.20;;
14381;SDS011;7275;50.328;8.720;2022-09-09T01:42:36;2.57;;;1.20;;
14381;SDS011;7275;50.328;8.720;2022-09-09T01:45:04;1.67;;;1.10;;
14381;SDS011;7275;50.328;8.720;2022-09-09T01:47:32;4.73;;;1.60;;
14381;SDS011;7275;50.328;8.720;2022-09-09T01:49:59;1.87;;;1.20;;
14381;SDS011;7275;50.328;8.720;2022-09-09T01:52:28;1.77;;;1.20;;
14381;SDS011;7275;50.328;8.720;2022-09-09T01:54:57;1.90;;;1.10;;
14381;SDS011;7275;50.328;8.720;2022-09-09T01:57:25;2.10;;;1.10;;
14381;SDS011;7275;50.328;8.720;2022-09-09T02:00:04;1.67;;;1.00;;
14381;SDS011;7275;50.328;8.720;2022-09-09T02:02:35;2.30;;;1.17;;
14381;SDS011;7275;50.328;8.720;2022-09-09T02:05:09;1.40;;;0.93;;
14381;SDS011;7275;50.328;8.720;2022-09-09T02:07:55;2.07;;;1.00;;
14381;SDS011;7275;50.328;8.720;2022-09-09T02:10:30;2.63;;;1.00;;
14381;SDS011;7275;50.328;8.720;2022-09-09T02:13:03;1.30;;;1.00;;
14381;SDS011;7275;50.328;8.720;2022-09-09T02:15:40;1.70;;;1.07;;
14381;SDS011;7275;50.328;8.720;2022-09-09T02:18:12;1.87;;;1.10;;
14381;SDS011;7275;50.328;8.720;2022-09-09T02:20:44;2.93;;;1.20;;
14381;SDS011;7275;50.328;8.720;2022-09-09T02:23:13;2.03;;;1.10;;
14381;SDS011;7275;50.328;8.720;2022-09-09T02:25:42;1.90;;;1.30;;
14381;SDS011;7275;50.328;8.720;2022-09-09T02:28:12;1.77;;;1.20;;
14381;SDS011;7275;50.328;8.720;2022-09-09T02:30:43;2.30;;;1.30;;
14381;SDS011;7275;50.328;8.720;2022-09-09T02:33:14;3.27;;;1.50;;
14381;SDS011;7275;50.328;8.720;2022-09-09T02:35:41;2.87;;;1.40;;
14381;SDS011;7275;50.328;8.720;2022-09-09T02:38:12;2.90;;;1.17;;
14381;SDS011;7275;50.328;8.720;2022-09-09T02:40:42;2.17;;;1.23;;
14381;SDS011;7275;50.328;8.720;2022-09-09T02:43:09;2.50;;;1.50;;
14381;SDS011;7275;50.328;8.720;2022-09-09T02:45:39;2.03;;;1.23;;
14381;SDS011;7275;50.328;8.720;2022-09-09T02:48:13;2.33;;;1.30;;
14381;SDS011;7275;50.328;8.720;2022-09-09T02:50:47;2.13;;;1.20;;
14381;SDS011;7275;50.328;8.720;2022-09-09T02:53:23;1.43;;;1.20;;
14381;SDS011;7275;50.328;8.720;2022-09-09T02:55:58;1.90;;;1.10;;
14381;SDS011;7275;50.328;8.720;2022-09-09T02:58:30;2.70;;;1.30;;
14381;SDS011;7275;50.328;8.720;2022-09-09T03:01:00;2.63;;;1.20;;
14381;SDS011;7275;50.328;8.720;2022-09-09T03:03:30;2.57;;;1.17;;
14381;SDS011;7275;50.328;8.720;2022-09-09T03:05:58;2.30;;;1.07;;
14381;SDS011;7275;50.328;8.720;2022-09-09T03:08:25;1.73;;;1.10;;
14381;SDS011;7275;50.328;8.720;2022-09-09T03:10:54;5.00;;;1.30;;
14381;SDS011;7275;50.328;8.720;2022-09-09T03:13:22;1.73;;;1.00;;
14381;SDS011;7275;50.328;8.720;2022-09-09T03:15:49;1.30;;;1.10;;
14381;SDS011;7275;50.328;8.720;2022-09-09T03:18:17;2.67;;;1.00;;
14381;SDS011;7275;50.328;8.720;2022-09-09T03:20:46;1.50;;;1.20;;
14381;SDS011;7275;50.328;8.720;2022-09-09T03:23:14;1.40;;;1.00;;
14381;SDS011;7275;50.328;8.720;2022-09-09T03:25:46;1.83;;;1.00;;
14381;SDS011;7275;50.328;8.720;2022-09-09T03:28:14;3.00;;;1.10;;
14381;SDS011;7275;50.328;8.720;2022-09-09T03:30:41;2.13;;;1.20;;
14381;SDS011;7275;50.328;8.720;2022-09-09T03:33:09;2.33;;;0.90;;
14381;SDS011;7275;50.328;8.720;2022-09-09T03:35:36;1.83;;;1.10;;
14381;SDS011;7275;50.328;8.720;2022-09-09T03:38:05;1.17;;;1.07;;
14381;SDS011;7275;50.328;8.720;2022-09-09T03:40:33;2.83;;;1.07;;
14381;SDS011;7275;50.328;8.720;2022-09-09T03:43:01;1.90;;;1.20;;
14381;SDS011;7275;50.328;8.720;2022-09-09T03:45:28;2.93;;;1.10;;
14381;SDS011;7275;50.328;8.720;2022-09-09T03:47:56;1.87;;;1.13;;
14381;SDS011;7275;50.328;8.720;2022-09-09T03:50:24;1.17;;;1.00;;
14381;SDS011;7275;50.328;8.720;2022-09-09T03:52:51;1.93;;;1.00;;
14381;SDS011;7275;50.328;8.720;2022-09-09T03:55:20;2.33;;;0.90;;
14381;SDS011;7275;50.328;8.720;2022-09-09T03:57:47;3.37;;;1.20;;
14381;SDS011;7275;50.328;8.720;2022-09-09T04:00:15;1.87;;;1.10;;
14381;SDS011;7275;50.328;8.720;2022-09-09T04:02:43;4.20;;;1.20;;
14381;SDS011;7275;50.328;8.720;2022-09-09T04:05:11;2.57;;;1.30;;
14381;SDS011;7275;50.328;8.720;2022-09-09T04:07:40;2.40;;;1.20;;
14381;SDS011;7275;50.328;8.720;2022-09-09T04:10:08;1.10;;;1.00;;
14381;SDS011;7275;50.328;8.720;2022-09-09T04:12:37;2.70;;;1.20;;
14381;SDS011;7275;50.328;8.720;2022-09-09T04:15:04;3.97;;;1.30;;
14381;SDS011;7275;50.328;8.720;2022-09-09T04:17:32;1.30;;;1.00;;
14381;SDS011;7275;50.328;8.720;2022-09-09T04:20:00;2.53;;;1.10;;
14381;SDS011;7275;50.328;8.720;2022-09-09T04:22:28;2.17;;;0.90;;
14381;SDS011;7275;50.328;8.720;2022-09-09T04:24:56;2.13;;;1.00;;
14381;SDS011;7275;50.328;8.720;2022-09-09T04:27:23;2.23;;;1.00;;
14381;SDS011;7275;50.328;8.720;2022-09-09T04:29:52;2.07;;;1.10;;
14381;SDS011;7275;50.328;8.720;2022-09-09T04:32:19;1.13;;;0.87;;
14381;SDS011;7275;50.328;8.720;2022-09-09T04:34:47;1.73;;;0.90;;
14381;SDS011;7275;50.328;8.720;2022-09-09T04:37:14;2.43;;;1.00;;
14381;SDS011;7275;50.328;8.720;2022-09-09T04:39:42;1.67;;;1.00;;
14381;SDS011;7275;50.328;8.720;2022-09-09T04:42:11;2.73;;;1.20;;
14381;SDS011;7275;50.328;8.720;2022-09-09T04:44:38;2.40;;;0.97;;
14381;SDS011;7275;50.328;8.720;2022-09-09T04:47:08;2.27;;;1.10;;
14381;SDS011;7275;50.328;8.720;2022-09-09T04:49:35;1.33;;;1.00;;
14381;SDS011;7275;50.328;8.720;2022-09-09T04:52:03;1.00;;;0.90;;
14381;SDS011;7275;50.328;8.720;2022-09-09T04:54:30;1.70;;;1.00;;
14381;SDS011;7275;50.328;8.720;2022-09-09T04:56:58;1.60;;;1.00;;
14381;SDS011;7275;50.328;8.720;2022-09-09T04:59:25;3.23;;;1.00;;
14381;SDS011;7275;50.328;8.720;2022-09-09T05:01:53;2.40;;;1.13;;
14381;SDS011;7275;50.328;8.720;2022-09-09T05:04:22;1.63;;;1.03;;
14381;SDS011;7275;50.328;8.720;2022-09-09T05:06:50;2.30;;;1.00;;
14381;SDS011;7275;50.328;8.720;2022-09-09T05:09:17;1.80;;;1.00;;
14381;SDS011;7275;50.328;8.720;2022-09-09T05:11:44;2.07;;;1.10;;
14381;SDS011;7275;50.328;8.720;2022-09-09T05:14:12;1.63;;;1.00;;
14381;SDS011;7275;50.328;8.720;2022-09-09T05:16:40;1.53;;;0.90;;
14381;SDS011;7275;50.328;8.720;2022-09-09T05:19:10;2.80;;;1.10;;
14381;SDS011;7275;50.328;8.720;2022-09-09T05:21:39;2.87;;;1.00;;
14381;SDS011;7275;50.328;8.720;2022-09-09T05:24:07;2.77;;;1.10;;
14381;SDS011;7275;50.328;8.720;2022-09-09T05:26:35;1.27;;;0.87;;
14381;SDS011;7275;50.328;8.720;2022-09-09T05:29:02;2.20;;;0.90;;
14381;SDS011;7275;50.328;8.720;2022-09-09T05:31:30;2.47;;;1.17;;
14381;SDS011;7275;50.328;8.720;2022-09-09T05:33:58;2.07;;;1.20;;
14381;SDS011;7275;50.328;8.720;2022-09-09T05:36:26;2.40;;;1.20;;
14381;SDS011;7275;50.328;8.720;2022-09-09T05:38:55;2.33;;;1.10;;
14381;SDS011;7275;50.328;8.720;2022-09-09T05:41:22;2.50;;;1.20;;
14381;SDS011;7275;50.328;8.720;2022-09-09T05:43:50;2.40;;;1.20;;
14381;SDS011;7275;50.328;8.720;2022-09-09T05:46:18;2.20;;;1.23;;
14381;SDS011;7275;50.328;8.720;2022-09-09T05:48:47;2.43;;;1.27;;
14381;SDS011;7275;50.328;8.720;2022-09-09T05:51:17;2.83;;;1.20;;
14381;SDS011;7275;50.328;8.720;2022-09-09T05:53:46;1.73;;;1.17;;
14381;SDS011;7275;50.328;8.720;2022-09-09T05:56:16;1.90;;;1.10;;
14381;SDS011;7275;50.328;8.720;2022-09-09T05:58:45;2.10;;;1.20;;
14381;SDS011;7275;50.328;8.720;2022-09-09T06:01:15;2.60;;;1.37;;
14381;SDS011;7275;50.328;8.720;2022-09-09T06:03:45;2.80;;;1.37;;
14381;SDS011;7275;50.328;8.720;2022-09-09T06:06:14;3.37;;;1.70;;
14381;SDS011;7275;50.328;8.720;2022-09-09T06:08:43;2.23;;;1.40;;
14381;SDS011;7275;50.328;8.720;2022-09-09T06:11:12;2.27;;;1.40;;
14381;SDS011;7275;50.328;8.720;2022-09-09T06:13:43;2.83;;;1.30;;
14381;SDS011;7275;50.328;8.720;2022-09-09T06:16:12;3.27;;;1.37;;
14381;SDS011;7275;50.328;8.720;2022-09-09T06:18:41;3.57;;;1.50;;
14381;SDS011;7275;50.328;8.720;2022-09-09T06:21:11;2.40;;;1.47;;
14381;SDS011;7275;50.328;8.720;2022-09-09T06:23:42;1.77;;;1.27;;
14381;SDS011;7275;50.328;8.720;2022-09-09T06:26:11;2.73;;;1.40;;
14381;SDS011;7275;50.328;8.720;2022-09-09T06:28:40;3.47;;;1.30;;
14381;SDS011;7275;50.328;8.720;2022-09-09T06:31:10;2.20;;;1.50;;
14381;SDS011;7275;50.328;8.720;2022-09-09T06:33:40;3.27;;;1.70;;
14381;SDS011;7275;50.328;8.720;2022-09-09T06:36:10;2.97;;;1.53;;
14381;SDS011;7275;50.328;8.720;2022-09-09T06:38:39;3.50;;;1.50;;
14381;SDS011;7275;50.328;8.720;2022-09-09T06:41:08;2.83;;;1.80;;
14381;SDS011;7275;50.328;8.720;2022-09-09T06:43:36;3.37;;;1.63;;
14381;SDS011;7275;50.328;8.720;2022-09-09T06:46:05;3.30;;;1.80;;
14381;SDS011;7275;50.328;8.720;2022-09-09T06:48:35;3.07;;;1.90;;
14381;SDS011;7275;50.328;8.720;2022-09-09T06:51:04;2.17;;;1.80;;
14381;SDS011;7275;50.328;8.720;2022-09-09T06:53:33;2.43;;;1.80;;
14381;SDS011;7275;50.328;8.720;2022-09-09T06:56:02;3.43;;;1.77;;
14381;SDS011;7275;50.328;8.720;2022-09-09T06:58:43;3.03;;;1.60;;
14381;SDS011;7275;50.328;8.720;2022-09-09T07:01:12;2.60;;;1.80;;
14381;SDS011;7275;50.328;8.720;2022-09-09T07:03:42;2.33;;;1.73;;
14381;SDS011;7275;50.328;8.720;2022-09-09T07:06:13;3.50;;;1.93;;
14381;SDS011;7275;50.328;8.720;2022-09-09T07:08:43;3.30;;;2.07;;
14381;SDS011;7275;50.328;8.720;2022-09-09T07:11:22;3.20;;;2.10;;
14381;SDS011;7275;50.328;8.720;2022-09-09T07:13:51;3.53;;;2.00;;
14381;SDS011;7275;50.328;8.720;2022-09-09T07:16:20;4.37;;;2.00;;
14381;SDS011;7275;50.328;8.720;2022-09-09T07:18:51;2.07;;;1.80;;
14381;SDS011;7275;50.328;8.720;2022-09-09T07:21:21;2.97;;;2.13;;
14381;SDS011;7275;50.328;8.720;2022-09-09T07:23:48;3.53;;;2.40;;
14381;SDS011;7275;50.328;8.720;2022-09-09T07:26:17;2.70;;;2.00;;
14381;SDS011;7275;50.328;8.720;2022-09-09T07:28:46;2.57;;;1.90;;
14381;SDS011;7275;50.328;8.720;2022-09-09T07:31:15;2.77;;;1.93;;
14381;SDS011;7275;50.328;8.720;2022-09-09T07:33:44;4.23;;;2.30;;
14381;SDS011;7275;50.328;8.720;2022-09-09T07:36:14;2.20;;;1.70;;
14381;SDS011;7275;50.328;8.720;2022-09-09T07:38:44;2.70;;;1.73;;
14381;SDS011;7275;50.328;8.720;2022-09-09T07:41:14;3.03;;;1.70;;
14381;SDS011;7275;50.328;8.720;2022-09-09T07:43:43;2.13;;;1.70;;
14381;SDS011;7275;50.328;8.720;2022-09-09T07:46:12;2.87;;;1.63;;
14381;SDS011;7275;50.328;8.720;2022-09-09T07:48:43;3.97;;;1.80;;
14381;SDS011;7275;50.328;8.720;2022-09-09T07:51:12;2.73;;;1.70;;
14381;SDS011;7275;50.328;8.720;2022-09-09T07:53:44;2.57;;;1.60;;
14381;SDS011;7275;50.328;8.720;2022-09-09T07:56:13;2.47;;;1.60;;
14381;SDS011;7275;50.328;8.720;2022-09-09T07:58:44;3.07;;;1.63;;
14381;SDS011;7275;50.328;8.720;2022-09-09T08:01:13;2.50;;;1.70;;
14381;SDS011;7275;50.328;8.720;2022-09-09T08:03:44;2.53;;;1.70;;
14381;SDS011;7275;50.328;8.720;2022-09-09T08:06:12;2.60;;;1.40;;
14381;SDS011;7275;50.328;8.720;2022-09-09T08:08:41;2.07;;;1.50;;
14381;SDS011;7275;50.328;8.720;2022-09-09T08:11:10;3.40;;;1.50;;
14381;SDS011;7275;50.328;8.720;2022-09-09T08:13:40;3.03;;;1.60;;
14381;SDS011;7275;50.328;8.720;2022-09-09T08:16:10;3.60;;;1.87;;
14381;SDS011;7275;50.328;8.720;2022-09-09T08:18:38;2.87;;;1.40;;
14381;SDS011;7275;50.328;8.720;2022-09-09T08:21:07;3.00;;;1.30;;
14381;SDS011;7275;50.328;8.720;2022-09-09T08:23:39;2.33;;;1.50;;
14381;SDS011;7275;50.328;8.720;2022-09-09T08:26:09;3.47;;;1.47;;
14381;SDS011;7275;50.328;8.720;2022-09-09T08:28:39;4.07;;;1.60;;
14381;SDS011;7275;50.328;8.720;2022-09-09T08:31:07;1.93;;;1.20;;
14381;SDS011;7275;50.328;8.720;2022-09-09T08:33:36;2.73;;;1.50;;
14381;SDS011;7275;50.328;8.720;2022-09-09T08:36:04;2.07;;;1.33;;
14381;SDS011;7275;50.328;8.720;2022-09-09T08:38:35;3.27;;;1.40;;
14381;SDS011;7275;50.328;8.720;2022-09-09T08:41:07;2.67;;;1.57;;
14381;SDS011;7275;50.328;8.720;2022-09-09T08:44:00;4.90;;;1.67;;
14381;SDS011;7275;50.328;8.720;2022-09-09T08:46:35;3.03;;;1.47;;
14381;SDS011;7275;50.328;8.720;2022-09-09T08:49:14;2.33;;;1.40;;
14381;SDS011;7275;50.328;8.720;2022-09-09T08:51:53;3.73;;;1.73;;
14381;SDS011;7275;50.328;8.720;2022-09-09T08:54:23;2.40;;;1.57;;
14381;SDS011;7275;50.328;8.720;2022-09-09T08:57:18;3.73;;;1.80;;
14381;SDS011;7275;50.328;8.720;2022-09-09T08:59:49;4.87;;;1.67;;
14381;SDS011;7275;50.328;8.720;2022-09-09T09:02:18;2.23;;;1.50;;
14381;SDS011;7275;50.328;8.720;2022-09-09T09:04:56;2.70;;;1.53;;
14381;SDS011;7275;50.328;8.720;2022-09-09T09:07:35;3.90;;;1.50;;
14381;SDS011;7275;50.328;8.720;2022-09-09T09:10:15;7.10;;;1.40;;
14381;SDS011;7275;50.328;8.720;2022-09-09T09:13:09;3.80;;;1.70;;
14381;SDS011;7275;50.328;8.720;2022-09-09T09:15:41;2.80;;;1.60;;
14381;SDS011;7275;50.328;8.720;2022-09-09T09:18:12;5.23;;;1.60;;
14381;SDS011;7275;50.328;8.720;2022-09-09T09:20:43;3.80;;;1.57;;
14381;SDS011;7275;50.328;8.720;2022-09-09T09:23:20;3.37;;;1.37;;
14381;SDS011;7275;50.328;8.720;2022-09-09T09:25:50;2.33;;;1.50;;
14381;SDS011;7275;50.328;8.720;2022-09-09T09:28:25;4.17;;;1.70;;
14381;SDS011;7275;50.328;8.720;2022-09-09T09:30:56;3.37;;;1.43;;
14381;SDS011;7275;50.328;8.720;2022-09-09T09:33:30;2.43;;;1.53;;
14381;SDS011;7275;50.328;8.720;2022-09-09T09:36:02;2.73;;;1.53;;
14381;SDS011;7275;50.328;8.720;2022-09-09T09:38:34;3.83;;;1.67;;
14381;SDS011;7275;50.328;8.720;2022-09-09T09:41:30;2.70;;;1.50;;
14381;SDS011;7275;50.328;8.720;2022-09-09T09:44:01;2.87;;;1.40;;
14381;SDS011;7275;50.328;8.720;2022-09-09T09:46:30;2.97;;;1.40;;
14381;SDS011;7275;50.328;8.720;2022-09-09T09:48:59;2.27;;;1.33;;
14381;SDS011;7275;50.328;8.720;2022-09-09T09:51:28;1.87;;;1.40;;
14381;SDS011;7275;50.328;8.720;2022-09-09T09:54:03;2.87;;;1.50;;
14381;SDS011;7275;50.328;8.720;2022-09-09T09:56:36;2.87;;;1.30;;
14381;SDS011;7275;50.328;8.720;2022-09-09T09:59:05;1.67;;;1.10;;
14381;SDS011;7275;50.328;8.720;2022-09-09T10:02:17;2.90;;;1.27;;
14381;SDS011;7275;50.328;8.720;2022-09-09T10:04:47;2.80;;;1.10;;
14381;SDS011;7275;50.328;8.720;2022-09-09T10:07:17;2.17;;;1.10;;
14381;SDS011;7275;50.328;8.720;2022-09-09T10:09:46;2.73;;;1.20;;
14381;SDS011;7275;50.328;8.720;2022-09-09T10:12:20;2.47;;;1.20;;
14381;SDS011;7275;50.328;8.720;2022-09-09T10:14:59;1.90;;;0.90;;
14381;SDS011;7275;50.328;8.720;2022-09-09T10:17:36;1.70;;;1.07;;
14381;SDS011;7275;50.328;8.720;2022-09-09T10:20:16;2.27;;;0.90;;
14381;SDS011;7275;50.328;8.720;2022-09-09T10:22:57;1.53;;;1.00;;
14381;SDS011;7275;50.328;8.720;2022-09-09T10:25:43;1.50;;;0.90;;
14381;SDS011;7275;50.328;8.720;2022-09-09T10:28:33;2.13;;;0.90;;
14381;SDS011;7275;50.328;8.720;2022-09-09T10:31:17;1.67;;;1.07;;
14381;SDS011;7275;50.328;8.720;2022-09-09T10:33:50;2.73;;;1.33;;
14381;SDS011;7275;50.328;8.720;2022-09-09T10:36:23;3.63;;;1.47;;
14381;SDS011;7275;50.328;8.720;2022-09-09T10:38:52;2.73;;;1.30;;
14381;SDS011;7275;50.328;8.720;2022-09-09T10:41:30;1.60;;;1.30;;
14381;SDS011;7275;50.328;8.720;2022-09-09T10:47:14;3.72;;;1.40;;
14381;SDS011;7275;50.328;8.720;2022-09-09T10:49:58;2.08;;;1.27;;
14381;SDS011;7275;50.328;8.720;2022-09-09T10:52:40;2.03;;;1.23;;
14381;SDS011;7275;50.328;8.720;2022-09-09T10:55:17;3.42;;;1.52;;
14381;SDS011;7275;50.328;8.720;2022-09-09T10:57:47;2.30;;;1.33;;
14381;SDS011;7275;50.328;8.720;2022-09-09T11:00:18;2.08;;;1.20;;
14381;SDS011;7275;50.328;8.720;2022-09-09T11:02:50;2.65;;;1.25;;
14381;SDS011;7275;50.328;8.720;2022-09-09T11:05:24;3.38;;;1.45;;
14381;SDS011;7275;50.328;8.720;2022-09-09T11:07:56;3.05;;;1.27;;
14381;SDS011;7275;50.328;8.720;2022-09-09T11:10:30;2.63;;;1.08;;
14381;SDS011;7275;50.328;8.720;2022-09-09T11:13:10;2.75;;;1.23;;
14381;SDS011;7275;50.328;8.720;2022-09-09T11:15:44;3.22;;;1.27;;
14381;SDS011;7275;50.328;8.720;2022-09-09T11:18:19;3.58;;;1.10;;
14381;SDS011;7275;50.328;8.720;2022-09-09T11:20:50;2.33;;;0.93;;
14381;SDS011;7275;50.328;8.720;2022-09-09T11:23:22;2.55;;;1.08;;
14381;SDS011;7275;50.328;8.720;2022-09-09T11:25:55;2.53;;;1.13;;
14381;SDS011;7275;50.328;8.720;2022-09-09T11:28:27;2.38;;;1.00;;
14381;SDS011;7275;50.328;8.720;2022-09-09T11:31:11;2.35;;;1.00;;
14381;SDS011;7275;50.328;8.720;2022-09-09T11:33:56;2.25;;;1.23;;
14381;SDS011;7275;50.328;8.720;2022-09-09T11:36:40;2.85;;;1.30;;
14381;SDS011;7275;50.328;8.720;2022-09-09T11:39:26;2.47;;;1.20;;
14381;SDS011;7275;50.328;8.720;2022-09-09T11:42:06;3.30;;;1.30;;
14381;SDS011;7275;50.328;8.720;2022-09-09T11:44:34;3.40;;;1.40;;
14381;SDS011;7275;50.328;8.720;2022-09-09T11:47:03;2.03;;;1.17;;
14381;SDS011;7275;50.328;8.720;2022-09-09T11:49:40;2.20;;;1.30;;
14381;SDS011;7275;50.328;8.720;2022-09-09T11:52:12;2.28;;;1.25;;
14381;SDS011;7275;50.328;8.720;2022-09-09T11:54:48;2.97;;;1.58;;
14381;SDS011;7275;50.328;8.720;2022-09-09T11:57:21;3.13;;;1.20;;
14381;SDS011;7275;50.328;8.720;2022-09-09T11:59:52;2.60;;;1.20;;
14381;SDS011;7275;50.328;8.720;2022-09-09T12:02:22;2.70;;;1.50;;
14381;SDS011;7275;50.328;8.720;2022-09-09T12:04:57;2.50;;;1.13;;
14381;SDS011;7275;50.328;8.720;2022-09-09T12:07:34;1.75;;;1.20;;
14381;SDS011;7275;50.328;8.720;2022-09-09T12:10:05;2.05;;;1.30;;
14381;SDS011;7275;50.328;8.720;2022-09-09T12:12:49;2.08;;;1.30;;
14381;SDS011;7275;50.328;8.720;2022-09-09T12:15:21;3.17;;;1.30;;
14381;SDS011;7275;50.328;8.720;2022-09-09T12:17:55;2.72;;;1.42;;
14381;SDS011;7275;50.328;8.720;2022-09-09T12:20:32;1.83;;;1.17;;
14381;SDS011;7275;50.328;8.720;2022-09-09T12:26:07;2.13;;;1.20;;
14381;SDS011;7275;50.328;8.720;2022-09-09T12:28:52;2.08;;;1.20;;
14381;SDS011;7275;50.328;8.720;2022-09-09T12:31:26;3.17;;;1.30;;
14381;SDS011;7275;50.328;8.720;2022-09-09T12:34:04;3.38;;;1.20;;
14381;SDS011;7275;50.328;8.720;2022-09-09T12:36:38;1.27;;;0.95;;
14381;SDS011;7275;50.328;8.720;2022-09-09T12:39:15;4.07;;;1.20;;
14381;SDS011;7275;50.328;8.720;2022-09-09T12:41:53;2.00;;;1.10;;
14381;SDS011;7275;50.328;8.720;2022-09-09T12:44:23;1.17;;;0.80;;
14381;SDS011;7275;50.328;8.720;2022-09-09T12:46:51;2.00;;;0.90;;
14381;SDS011;7275;50.328;8.720;2022-09-09T12:49:23;2.17;;;1.00;;
14381;SDS011;7275;50.328;8.720;2022-09-09T12:51:56;2.00;;;0.90;;
14381;SDS011;7275;50.328;8.720;2022-09-09T12:54:24;3.80;;;1.27;;
14381;SDS011;7275;50.328;8.720;2022-09-09T12:56:52;2.28;;;1.10;;
14381;SDS011;7275;50.328;8.720;2022-09-09T12:59:21;2.70;;;1.02;;
14381;SDS011;7275;50.328;8.720;2022-09-09T13:01:57;2.75;;;1.10;;
14381;SDS011;7275;50.328;8.720;2022-09-09T13:04:26;1.52;;;0.93;;
14381;SDS011;7275;50.328;8.720;2022-09-09T13:06:53;2.30;;;1.00;;
14381;SDS011;7275;50.328;8.720;2022-09-09T13:09:22;3.55;;;1.25;;
14381;SDS011;7275;50.328;8.720;2022-09-09T13:11:51;2.55;;;1.13;;
14381;SDS011;7275;50.328;8.720;2022-09-09T13:14:25;1.95;;;0.90;;
14381;SDS011;7275;50.328;8.720;2022-09-09T13:16:59;2.20;;;0.90;;
14381;SDS011;7275;50.328;8.720;2022-09-09T13:19:27;2.50;;;0.80;;
14381;SDS011;7275;50.328;8.720;2022-09-09T13:21:58;1.35;;;0.70;;
14381;SDS011;7275;50.328;8.720;2022-09-09T13:24:31;1.05;;;0.60;;
14381;SDS011;7275;50.328;8.720;2022-09-09T13:27:00;0.70;;;0.50;;
14381;SDS011;7275;50.328;8.720;2022-09-09T13:29:29;1.10;;;0.57;;
14381;SDS011;7275;50.328;8.720;2022-09-09T13:32:03;1.85;;;0.60;;
14381;SDS011;7275;50.328;8.720;2022-09-09T13:34:32;1.20;;;0.70;;
14381;SDS011;7275;50.328;8.720;2022-09-09T13:37:02;1.48;;;0.80;;
14381;SDS011;7275;50.328;8.720;2022-09-09T13:39:33;1.58;;;0.60;;
14381;SDS011;7275;50.328;8.720;2022-09-09T13:42:03;1.75;;;0.73;;
14381;SDS011;7275;50.328;8.720;2022-09-09T13:44:33;2.00;;;0.88;;
14381;SDS011;7275;50.328;8.720;2022-09-09T13:47:05;0.90;;;0.63;;
14381;SDS011;7275;50.328;8.720;2022-09-09T13:49:36;1.33;;;0.70;;
14381;SDS011;7275;50.328;8.720;2022-09-09T13:52:04;1.30;;;0.80;;
14381;SDS011;7275;50.328;8.720;2022-09-09T13:54:37;1.23;;;0.52;;
14381;SDS011;7275;50.328;8.720;2022-09-09T13:57:05;1.15;;;0.70;;
14381;SDS011;7275;50.328;8.720;2022-09-09T13:59:40;1.52;;;0.77;;
14381;SDS011;7275;50.328;8.720;2022-09-09T14:02:28;1.55;;;0.80;;
14381;SDS011;7275;50.328;8.720;2022-09-09T14:04:57;1.13;;;0.80;;
14381;SDS011;7275;50.328;8.720;2022-09-09T14:07:24;2.95;;;1.08;;
14381;SDS011;7275;50.328;8.720;2022-09-09T14:09:53;2.88;;;0.80;;
14381;SDS011;7275;50.328;8.720;2022-09-09T14:12:21;1.60;;;0.85;;
14381;SDS011;7275;50.328;8.720;2022-09-09T14:14:48;2.13;;;0.90;;
14381;SDS011;7275;50.328;8.720;2022-09-09T14:17:16;1.63;;;0.93;;
14381;SDS011;7275;50.328;8.720;2022-09-09T14:19:43;2.00;;;0.90;;
14381;SDS011;7275;50.328;8.720;2022-09-09T14:22:11;2.33;;;0.90;;
14381;SDS011;7275;50.328;8.720;2022-09-09T14:24:39;1.70;;;1.05;;
14381;SDS011;7275;50.328;8.720;2022-09-09T14:27:08;2.80;;;0.98;;
14381;SDS011;7275;50.328;8.720;2022-09-09T14:29:35;2.03;;;1.00;;
14381;SDS011;7275;50.328;8.720;2022-09-09T14:32:03;1.67;;;0.85;;
14381;SDS011;7275;50.328;8.720;2022-09-09T14:34:37;1.85;;;0.90;;
14381;SDS011;7275;50.328;8.720;2022-09-09T14:37:04;1.95;;;0.88;;
14381;SDS011;7275;50.328;8.720;2022-09-09T14:39:32;1.00;;;0.80;;
14381;SDS011;7275;50.328;8.720;2022-09-09T14:41:59;1.00;;;0.73;;
14381;SDS011;7275;50.328;8.720;2022-09-09T14:44:29;1.52;;;0.70;;
14381;SDS011;7275;50.328;8.720;2022-09-09T14:46:57;1.38;;;0.77;;
14381;SDS011;7275;50.328;8.720;2022-09-09T14:49:25;2.25;;;0.60;;
14381;SDS011;7275;50.328;8.720;2022-09-09T14:51:52;1.25;;;0.55;;
14381;SDS011;7275;50.328;8.720;2022-09-09T14:54:20;1.35;;;0.88;;
14381;SDS011;7275;50.328;8.720;2022-09-09T14:56:49;1.17;;;0.70;;
14381;SDS011;7275;50.328;8.720;2022-09-09T14:59:16;1.23;;;0.75;;
14381;SDS011;7275;50.328;8.720;2022-09-09T15:01:45;1.48;;;0.88;;
14381;SDS011;7275;50.328;8.720;2022-09-09T15:04:13;1.27;;;0.80;;
14381;SDS011;7275;50.328;8.720;2022-09-09T15:06:41;1.90;;;1.00;;
14381;SDS011;7275;50.328;8.720;2022-09-09T15:09:10;2.00;;;0.87;;
14381;SDS011;7275;50.328;8.720;2022-09-09T15:11:38;4.00;;;0.90;;
14381;SDS011;7275;50.328;8.720;2022-09-09T15:14:06;1.98;;;1.00;;
14381;SDS011;7275;50.328;8.720;2022-09-09T15:16:35;2.00;;;0.80;;
14381;SDS011;7275;50.328;8.720;2022-09-09T15:19:04;2.75;;;0.98;;
14381;SDS011;7275;50.328;8.720;2022-09-09T15:21:33;2.05;;;0.90;;
14381;SDS011;7275;50.328;8.720;2022-09-09T15:24:01;1.80;;;0.90;;
14381;SDS011;7275;50.328;8.720;2022-09-09T15:26:29;1.85;;;1.15;;
14381;SDS011;7275;50.328;8.720;2022-09-09T15:28:57;2.70;;;0.90;;
14381;SDS011;7275;50.328;8.720;2022-09-09T15:31:26;1.70;;;0.77;;
14381;SDS011;7275;50.328;8.720;2022-09-09T15:33:56;2.05;;;0.80;;
14381;SDS011;7275;50.328;8.720;2022-09-09T15:36:28;1.75;;;0.65;;
14381;SDS011;7275;50.328;8.720;2022-09-09T15:38:58;3.90;;;0.80;;
14381;SDS011;7275;50.328;8.720;2022-09-09T15:41:26;1.13;;;0.70;;